Time;durP1;ratioP1;P1;durP2;ratioP2;P2;SDS_P1;SDS_P2;PMS_P1;PMS_P2;Temp;Humidity;BMP_temperature;BMP_pressure;BME280_temperature;BME280_humidity;BME280_pressure;Samples;Min_cycle;Max_cycle;Signal;HPM_P1;HPM_P2
2023/11/17 00:00:00;;;;;;;;;;;;;;;4.14;86.09;100827.41;106300;1259;72137;-80
2023/11/17 00:02:28;;;;;;;;;;;;;;;4.11;85.91;100823.45;106209;1257;125047;-85
2023/11/17 00:04:54;;;;;;;;;;;;;;;4.06;85.78;100825.46;106388;1258;62113;-85
2023/11/17 00:07:21;;;;;;;;;;;;;;;4.08;85.99;100827.98;106350;1256;124900;-85
2023/11/17 00:09:55;;;;;;;;;;;;;;;4.11;86.04;100831.08;106243;1264;64699;-85
2023/11/17 00:12:23;;;;;;;;;;;;;;;4.13;85.98;100824.41;106173;1263;72789;-80
2023/11/17 00:14:50;;;;;;;;;;;;;;;4.12;85.89;100826.77;106217;1263;124871;-79
2023/11/17 00:17:17;;;;;;;;;;;;;;;4.09;85.76;100826.30;106609;1259;60058;-79
2023/11/17 00:19:45;;;;;;;;;;;;;;;4.09;85.83;100827.35;106174;1258;124937;-79
2023/11/17 00:22:13;;;;;;;;;;;;;;;4.11;85.90;100829.48;106398;1261;65278;-79
2023/11/17 00:24:40;;;;;;;;;;;;;;;4.10;85.92;100824.78;106409;1261;72462;-79
2023/11/17 00:27:09;;;;;;;;;;;;;;;4.09;85.84;100826.81;106320;1257;124934;-78
2023/11/17 00:29:37;;;;;;;;;;;;;;;4.07;85.83;100827.94;105873;1257;62072;-80
2023/11/17 00:32:04;;;;;;;;;;;;;;;4.08;86.03;100826.59;106221;1258;125628;-77
2023/11/17 00:34:31;;;;;;;;;;;;;;;4.10;86.02;100826.52;105847;1260;65108;-79
2023/11/17 00:36:58;;;;;;;;;;;;;;;4.12;85.98;100826.48;105769;1259;72759;-79
2023/11/17 00:39:28;;;;;;;;;;;;;;;4.14;85.87;100829.13;106339;1259;124035;-80
2023/11/17 00:41:55;;;;;;;;;;;;;;;4.13;85.85;100828.38;106462;1257;62112;-80
2023/11/17 00:44:22;;;;;;;;;;;;;;;4.12;85.68;100827.66;106359;1256;125132;-80
2023/11/17 00:46:49;;;;;;;;;;;;;;;4.08;85.67;100828.16;106314;1264;65237;-80
2023/11/17 00:49:15;;;;;;;;;;;;;;;4.08;85.81;100828.51;106244;1257;124941;-80
2023/11/17 00:51:42;;;;;;;;;;;;;;;4.08;85.82;100826.05;106407;1259;62060;-80
2023/11/17 00:54:09;;;;;;;;;;;;;;;4.08;85.84;100825.20;106371;1264;62087;-80
2023/11/17 00:56:35;;;;;;;;;;;;;;;4.09;85.80;100822.98;106235;1259;125106;-80
2023/11/17 00:59:04;;;;;;;;;;;;;;;4.11;85.95;100820.32;106254;1259;66644;-80
2023/11/17 01:01:31;;;;;;;;;;;;;;;4.12;85.91;100821.06;106193;1257;125057;-80
2023/11/17 01:03:58;;;;;;;;;;;;;;;4.13;85.94;100822.34;106291;1258;60336;-80
2023/11/17 01:06:25;;;;;;;;;;;;;;;4.14;85.92;100820.30;106304;1263;62085;-80
2023/11/17 01:08:52;;;;;;;;;;;;;;;4.15;85.77;100819.64;106232;1259;124846;-80
2023/11/17 01:11:21;;;;;;;;;;;;;;;4.12;85.58;100820.02;106362;1259;65347;-80
2023/11/17 01:13:48;;;;;;;;;;;;;;;4.09;85.74;100816.38;106188;1261;125062;-80
2023/11/17 01:16:16;;;;;;;;;;;;;;;4.11;85.93;100815.09;106380;1261;62156;-80
2023/11/17 01:18:42;;;;;;;;;;;;;;;4.14;85.91;100817.66;106519;1261;62062;-79
2023/11/17 01:21:09;;;;;;;;;;;;;;;4.14;85.94;100815.93;106337;1257;125753;-79
2023/11/17 01:23:35;;;;;;;;;;;;;;;4.13;85.88;100815.72;106145;1259;65606;-79
2023/11/17 01:26:02;;;;;;;;;;;;;;;4.12;85.71;100816.88;106168;1258;124986;-80
2023/11/17 01:28:29;;;;;;;;;;;;;;;4.12;85.71;100816.70;106373;1261;62053;-80
2023/11/17 01:30:55;;;;;;;;;;;;;;;4.11;85.75;100816.13;106406;1259;62057;-80
2023/11/17 01:33:22;;;;;;;;;;;;;;;4.09;85.62;100813.09;106367;1258;124918;-80
2023/11/17 01:35:49;;;;;;;;;;;;;;;4.08;85.81;100814.80;106483;1258;65601;-80
2023/11/17 01:38:17;;;;;;;;;;;;;;;4.08;85.70;100812.86;106186;1257;124722;-81
2023/11/17 01:40:44;;;;;;;;;;;;;;;4.07;85.70;100817.15;106202;1260;60909;-80
2023/11/17 01:43:11;;;;;;;;;;;;;;;4.04;85.73;100818.23;106186;1263;124893;-80
2023/11/17 01:45:42;;;;;;;;;;;;;;;4.05;85.86;100817.39;106293;1259;75213;-80
2023/11/17 01:48:09;;;;;;;;;;;;;;;4.05;85.80;100816.73;106335;1261;66651;-79
2023/11/17 01:50:35;;;;;;;;;;;;;;;4.05;85.97;100818.45;105867;1271;125366;-80
2023/11/17 01:53:02;;;;;;;;;;;;;;;4.08;85.78;100817.06;106440;1257;62187;-86
2023/11/17 01:55:29;;;;;;;;;;;;;;;4.12;86.01;100815.45;106243;1259;126176;-86
2023/11/17 01:57:56;;;;;;;;;;;;;;;4.12;85.92;100812.55;106467;1258;75498;-80
2023/11/17 02:00:22;;;;;;;;;;;;;;;4.11;85.75;100815.29;106537;1257;64453;-85
2023/11/17 02:02:52;;;;;;;;;;;;;;;4.11;85.88;100811.60;106383;1262;125299;-85
2023/11/17 02:05:21;;;;;;;;;;;;;;;4.12;85.78;100805.41;106442;1262;62435;-84
2023/11/17 02:08:07;;;;;;;;;;;;;;;4.11;85.88;100805.88;106185;1258;125882;-85
2023/11/17 02:10:51;;;;;;;;;;;;;;;4.09;85.78;100803.02;106373;1257;74564;-85
2023/11/17 02:13:25;;;;;;;;;;;;;;;4.10;85.85;100800.45;106381;1256;123982;-83
2023/11/17 02:15:54;;;;;;;;;;;;;;;4.09;85.71;100802.33;106548;1257;71846;-78
2023/11/17 02:18:22;;;;;;;;;;;;;;;4.09;85.88;100801.63;106346;1259;62344;-78
2023/11/17 02:20:52;;;;;;;;;;;;;;;4.07;85.67;100802.24;105927;1261;124746;-78
2023/11/17 02:23:19;;;;;;;;;;;;;;;4.07;85.77;100806.75;105709;1258;74203;-79
2023/11/17 02:25:59;;;;;;;;;;;;;;;4.08;85.75;100806.11;106385;1261;124975;-79
2023/11/17 02:28:41;;;;;;;;;;;;;;;4.08;85.72;100800.71;106675;1258;72684;-79
2023/11/17 02:31:29;;;;;;;;;;;;;;;4.07;85.69;100802.23;105667;1258;125264;-79
2023/11/17 02:33:57;;;;;;;;;;;;;;;4.07;85.65;100802.75;106295;1261;60061;-80
2023/11/17 02:36:26;;;;;;;;;;;;;;;4.06;85.73;100801.86;106260;1257;76163;-79
2023/11/17 02:38:57;;;;;;;;;;;;;;;4.06;85.77;100801.66;106229;1257;124871;-79
2023/11/17 02:41:32;;;;;;;;;;;;;;;4.07;85.74;100802.05;105726;1259;73972;-79
2023/11/17 02:43:59;;;;;;;;;;;;;;;4.08;85.66;100804.88;106278;1259;124884;-80
2023/11/17 02:46:26;;;;;;;;;;;;;;;4.08;85.68;100807.85;106167;1260;62046;-79
2023/11/17 02:48:53;;;;;;;;;;;;;;;4.06;85.68;100808.27;106435;1259;74489;-79
2023/11/17 02:51:22;;;;;;;;;;;;;;;4.06;85.69;100808.08;105589;1259;124855;-78
2023/11/17 02:53:49;;;;;;;;;;;;;;;4.06;85.67;100812.73;106417;1258;72416;-78
2023/11/17 02:56:18;;;;;;;;;;;;;;;4.03;85.66;100813.86;105599;1259;125252;-79
2023/11/17 02:58:46;;;;;;;;;;;;;;;4.04;85.76;100816.14;106585;1261;62208;-79
2023/11/17 03:01:15;;;;;;;;;;;;;;;4.05;85.77;100816.55;106167;1257;125064;-79
2023/11/17 03:03:43;;;;;;;;;;;;;;;4.07;85.76;100818.52;106261;1258;66337;-79
2023/11/17 03:06:10;;;;;;;;;;;;;;;4.08;85.76;100817.91;106304;1258;71137;-80
2023/11/17 03:08:36;;;;;;;;;;;;;;;4.06;85.70;100816.95;106126;1257;125259;-79
2023/11/17 03:11:03;;;;;;;;;;;;;;;4.07;85.70;100820.28;106356;1257;62521;-80
2023/11/17 03:13:32;;;;;;;;;;;;;;;4.07;85.72;100821.65;106243;1259;125990;-80
2023/11/17 03:15:59;;;;;;;;;;;;;;;4.05;85.67;100827.33;106037;1266;65002;-80
2023/11/17 03:18:30;;;;;;;;;;;;;;;4.05;85.61;100826.80;106267;1257;72740;-79
2023/11/17 03:21:01;;;;;;;;;;;;;;;4.07;85.65;100826.55;106262;1259;124795;-79
2023/11/17 03:23:32;;;;;;;;;;;;;;;4.08;85.70;100827.45;106431;1259;62106;-78
2023/11/17 03:25:59;;;;;;;;;;;;;;;4.08;85.74;100825.39;106012;1261;124944;-77
2023/11/17 03:28:26;;;;;;;;;;;;;;;4.10;85.76;100831.73;105760;1260;65969;-78
2023/11/17 03:30:55;;;;;;;;;;;;;;;4.11;85.77;100836.81;106388;1257;72766;-79
2023/11/17 03:33:22;;;;;;;;;;;;;;;4.12;85.71;100836.88;105728;1261;124750;-79
2023/11/17 03:35:50;;;;;;;;;;;;;;;4.12;85.70;100840.33;106230;1257;62088;-79
2023/11/17 03:38:16;;;;;;;;;;;;;;;4.13;85.60;100841.07;106291;1259;125775;-79
2023/11/17 03:40:46;;;;;;;;;;;;;;;4.11;85.54;100839.77;105637;1259;64991;-80
2023/11/17 03:43:13;;;;;;;;;;;;;;;4.09;85.59;100846.09;106312;1263;125133;-79
2023/11/17 03:45:49;;;;;;;;;;;;;;;4.10;85.58;100848.23;106455;1259;62139;-79
2023/11/17 03:48:15;;;;;;;;;;;;;;;4.12;85.72;100852.48;106371;1258;62081;-79
2023/11/17 03:50:42;;;;;;;;;;;;;;;4.11;85.58;100853.16;106084;1258;125019;-79
2023/11/17 03:53:09;;;;;;;;;;;;;;;4.11;85.52;100856.59;106232;1263;66355;-80
2023/11/17 03:55:35;;;;;;;;;;;;;;;4.12;85.50;100859.75;106102;1258;126210;-79
2023/11/17 03:58:03;;;;;;;;;;;;;;;4.14;85.71;100858.67;106121;1259;62130;-80
2023/11/17 04:00:30;;;;;;;;;;;;;;;4.17;85.72;100852.38;106248;1263;62253;-79
2023/11/17 04:02:57;;;;;;;;;;;;;;;4.16;85.63;100856.52;105512;1258;125636;-80
2023/11/17 04:05:25;;;;;;;;;;;;;;;4.16;85.55;100855.16;106354;1257;66058;-80
2023/11/17 04:07:55;;;;;;;;;;;;;;;4.17;85.59;100856.24;106233;1259;125420;-79
2023/11/17 04:10:23;;;;;;;;;;;;;;;4.16;85.50;100859.80;106378;1258;62078;-80
2023/11/17 04:12:49;;;;;;;;;;;;;;;4.15;85.55;100863.95;106207;1259;62116;-80
2023/11/17 04:15:16;;;;;;;;;;;;;;;4.15;85.55;100861.66;106129;1263;124971;-79
2023/11/17 04:17:43;;;;;;;;;;;;;;;4.13;85.49;100864.53;106169;1260;64911;-79
2023/11/17 04:20:14;;;;;;;;;;;;;;;4.11;85.45;100861.63;105608;1262;125081;-80
2023/11/17 04:22:41;;;;;;;;;;;;;;;4.10;85.58;100858.83;106304;1263;62095;-79
2023/11/17 04:25:09;;;;;;;;;;;;;;;4.11;85.61;100861.98;106232;1261;125706;-80
2023/11/17 04:27:38;;;;;;;;;;;;;;;4.13;85.69;100867.82;106272;1272;75508;-79
2023/11/17 04:30:07;;;;;;;;;;;;;;;4.13;85.66;100871.46;106313;1258;65099;-79
2023/11/17 04:32:35;;;;;;;;;;;;;;;4.15;85.68;100871.42;106122;1261;125126;-79
2023/11/17 04:35:03;;;;;;;;;;;;;;;4.16;85.65;100870.73;106200;1259;62143;-80
2023/11/17 04:37:29;;;;;;;;;;;;;;;4.15;85.51;100875.36;106163;1264;125372;-80
2023/11/17 04:39:56;;;;;;;;;;;;;;;4.15;85.58;100872.78;106218;1259;74069;-80
2023/11/17 04:42:23;;;;;;;;;;;;;;;4.15;85.65;100873.98;106287;1261;66471;-80
2023/11/17 04:44:49;;;;;;;;;;;;;;;4.16;85.69;100877.39;106443;1259;125582;-81
2023/11/17 04:47:16;;;;;;;;;;;;;;;4.18;85.66;100876.95;106401;1257;61939;-84
2023/11/17 04:49:44;;;;;;;;;;;;;;;4.17;85.59;100875.86;106984;1258;125776;-80
2023/11/17 04:52:10;;;;;;;;;;;;;;;4.17;85.50;100874.97;106914;1257;74155;-85
2023/11/17 04:54:39;;;;;;;;;;;;;;;4.14;85.44;100877.73;106503;1257;66328;-84
2023/11/17 04:57:08;;;;;;;;;;;;;;;4.13;85.69;100878.07;106400;1260;124920;-85
2023/11/17 04:59:35;;;;;;;;;;;;;;;4.16;85.56;100879.59;106410;1259;62067;-84
2023/11/17 05:02:02;;;;;;;;;;;;;;;4.16;85.66;100880.98;106271;1263;125331;-85
2023/11/17 05:04:29;;;;;;;;;;;;;;;4.14;85.49;100884.86;106400;1258;74734;-85
2023/11/17 05:06:56;;;;;;;;;;;;;;;4.12;85.57;100890.15;106546;1262;66275;-85
2023/11/17 05:09:22;;;;;;;;;;;;;;;4.13;85.58;100893.71;106150;1257;124558;-87
2023/11/17 05:11:49;;;;;;;;;;;;;;;4.15;85.57;100895.73;106511;1262;62127;-86
2023/11/17 05:14:16;;;;;;;;;;;;;;;4.17;85.63;100894.60;106434;1256;125162;-86
2023/11/17 05:16:45;;;;;;;;;;;;;;;4.17;85.52;100893.19;106621;1260;76133;-86
2023/11/17 05:19:13;;;;;;;;;;;;;;;4.15;85.52;100893.27;106602;1257;125235;-85
2023/11/17 05:21:40;;;;;;;;;;;;;;;4.15;85.58;100891.71;106470;1261;70451;-86
2023/11/17 05:24:07;;;;;;;;;;;;;;;4.13;85.54;100887.98;106645;1258;62104;-87
2023/11/17 05:26:33;;;;;;;;;;;;;;;4.13;85.51;100887.13;106460;1259;125449;-86
2023/11/17 05:29:00;;;;;;;;;;;;;;;4.14;85.51;100885.73;106561;1258;75404;-86
2023/11/17 05:31:27;;;;;;;;;;;;;;;4.17;85.80;100886.42;106598;1257;125193;-86
2023/11/17 05:33:54;;;;;;;;;;;;;;;4.19;85.60;100890.36;106605;1263;72500;-88
2023/11/17 05:36:21;;;;;;;;;;;;;;;4.19;85.60;100894.88;106299;1257;62052;-85
2023/11/17 05:38:48;;;;;;;;;;;;;;;4.19;85.55;100897.83;106287;1263;125032;-85
2023/11/17 05:41:17;;;;;;;;;;;;;;;4.22;85.67;100900.27;106366;1263;74210;-77
2023/11/17 05:43:47;;;;;;;;;;;;;;;4.24;85.70;100904.36;105939;1258;125200;-79
2023/11/17 05:46:14;;;;;;;;;;;;;;;4.24;85.56;100909.79;106224;1264;72761;-82
2023/11/17 05:48:41;;;;;;;;;;;;;;;4.24;85.53;100911.81;106336;1263;62193;-84
2023/11/17 05:51:09;;;;;;;;;;;;;;;4.21;85.40;100915.16;106188;1261;125035;-84
2023/11/17 05:53:37;;;;;;;;;;;;;;;4.20;85.48;100918.05;106524;1263;75462;-83
2023/11/17 05:56:06;;;;;;;;;;;;;;;4.20;85.37;100923.09;106213;1259;123950;-82
2023/11/17 05:58:32;;;;;;;;;;;;;;;4.20;85.38;100923.74;106266;1260;72787;-83
2023/11/17 06:00:59;;;;;;;;;;;;;;;4.19;85.36;100922.67;106230;1263;62171;-82
2023/11/17 06:03:27;;;;;;;;;;;;;;;4.19;85.40;100926.17;106113;1264;125384;-82
2023/11/17 06:05:55;;;;;;;;;;;;;;;4.19;85.42;100926.14;106071;1264;75515;-82
2023/11/17 06:08:22;;;;;;;;;;;;;;;4.18;85.33;100924.70;106159;1261;125166;-83
2023/11/17 06:10:48;;;;;;;;;;;;;;;4.18;85.32;100924.02;106269;1260;71532;-83
2023/11/17 06:13:15;;;;;;;;;;;;;;;4.18;85.23;100924.70;106212;1263;124010;-84
2023/11/17 06:15:42;;;;;;;;;;;;;;;4.15;85.09;100929.96;106502;1257;63307;-86
2023/11/17 06:18:09;;;;;;;;;;;;;;;4.14;85.23;100928.48;106358;1260;75349;-82
2023/11/17 06:20:39;;;;;;;;;;;;;;;4.16;85.30;100926.66;106398;1261;125111;-83
2023/11/17 06:23:08;;;;;;;;;;;;;;;4.15;85.21;100924.88;106410;1264;73772;-80
2023/11/17 06:25:38;;;;;;;;;;;;;;;4.15;85.33;100925.75;106493;1264;125372;-85
2023/11/17 06:28:04;;;;;;;;;;;;;;;4.16;85.22;100925.80;106347;1261;62056;-84
2023/11/17 06:30:31;;;;;;;;;;;;;;;4.15;85.26;100927.12;106349;1260;74553;-84
2023/11/17 06:32:58;;;;;;;;;;;;;;;4.16;85.31;100932.60;106261;1258;125423;-87
2023/11/17 06:35:25;;;;;;;;;;;;;;;4.15;85.24;100930.29;106312;1260;70458;-86
2023/11/17 06:38:03;;;;;;;;;;;;;;;4.16;85.32;100933.64;106481;1257;125165;-86
2023/11/17 06:40:30;;;;;;;;;;;;;;;4.17;85.27;100934.73;106203;1266;62015;-85
2023/11/17 06:42:58;;;;;;;;;;;;;;;4.16;85.23;100936.92;106235;1260;75543;-88
2023/11/17 06:45:25;;;;;;;;;;;;;;;4.15;85.23;100941.23;106232;1257;124954;-87
2023/11/17 06:47:52;;;;;;;;;;;;;;;4.14;85.14;100943.75;106511;1257;72711;-83
2023/11/17 06:50:19;;;;;;;;;;;;;;;4.14;85.12;100945.14;106643;1258;125640;-86
2023/11/17 06:52:46;;;;;;;;;;;;;;;4.14;85.10;100947.73;106499;1258;62193;-87
2023/11/17 06:55:15;;;;;;;;;;;;;;;4.15;85.21;100949.01;106387;1257;125132;-87
2023/11/17 06:57:43;;;;;;;;;;;;;;;4.17;85.31;100949.34;106419;1257;64975;-86
2023/11/17 07:00:12;;;;;;;;;;;;;;;4.19;85.35;100947.88;106557;1263;71825;-82
2023/11/17 07:02:42;;;;;;;;;;;;;;;4.18;85.20;100950.39;106330;1263;125586;-82
2023/11/17 07:05:10;;;;;;;;;;;;;;;4.15;85.00;100953.39;106214;1257;62097;-86
2023/11/17 07:07:37;;;;;;;;;;;;;;;4.16;85.08;100959.67;106193;1257;125502;-86
2023/11/17 07:10:07;;;;;;;;;;;;;;;4.17;85.15;100962.69;106273;1257;66331;-87
2023/11/17 07:12:37;;;;;;;;;;;;;;;4.19;85.21;100964.90;106339;1257;71400;-87
2023/11/17 07:15:05;;;;;;;;;;;;;;;4.18;85.05;100964.67;106143;1257;125912;-87
2023/11/17 07:17:31;;;;;;;;;;;;;;;4.20;85.10;100965.10;106369;1262;61978;-88
2023/11/17 07:19:58;;;;;;;;;;;;;;;4.20;85.13;100966.70;106320;1263;125362;-87
2023/11/17 07:22:26;;;;;;;;;;;;;;;4.24;85.24;100969.33;106430;1257;64581;-87
2023/11/17 07:24:52;;;;;;;;;;;;;;;4.25;85.15;100969.22;106437;1258;71751;-87
2023/11/17 07:27:19;;;;;;;;;;;;;;;4.26;85.12;100974.29;106247;1257;125024;-87
2023/11/17 07:29:46;;;;;;;;;;;;;;;4.26;85.09;100978.64;106316;1264;62305;-87
2023/11/17 07:32:13;;;;;;;;;;;;;;;4.27;85.15;100983.55;106211;1256;124972;-87
2023/11/17 07:34:39;;;;;;;;;;;;;;;4.28;85.15;100983.30;106356;1261;64946;-87
2023/11/17 07:37:07;;;;;;;;;;;;;;;4.29;85.19;100985.95;106219;1257;124252;-86
2023/11/17 07:39:34;;;;;;;;;;;;;;;4.32;85.08;100984.14;106201;1258;62033;-83
2023/11/17 07:42:00;;;;;;;;;;;;;;;4.31;84.97;100987.22;106401;1258;62218;-83
2023/11/17 07:44:27;;;;;;;;;;;;;;;4.30;84.90;100992.40;106154;1261;125174;-84
2023/11/17 07:46:56;;;;;;;;;;;;;;;4.32;85.05;100994.06;106135;1261;64878;-83
2023/11/17 07:49:25;;;;;;;;;;;;;;;4.34;85.03;100991.74;106303;1258;125235;-83
2023/11/17 07:51:53;;;;;;;;;;;;;;;4.36;85.13;100987.48;106601;1257;62149;-87
2023/11/17 07:54:22;;;;;;;;;;;;;;;4.37;84.98;100991.56;106233;1263;62038;-87
2023/11/17 07:56:50;;;;;;;;;;;;;;;4.38;84.96;100991.45;106146;1258;126146;-87
2023/11/17 07:59:19;;;;;;;;;;;;;;;4.39;84.91;100994.95;106305;1259;66261;-87
2023/11/17 08:01:46;;;;;;;;;;;;;;;4.41;84.93;101000.11;106152;1259;125110;-87
2023/11/17 08:04:13;;;;;;;;;;;;;;;4.42;84.92;101000.86;106300;1263;62158;-87
2023/11/17 08:06:40;;;;;;;;;;;;;;;4.44;84.95;101005.70;106326;1258;60070;-83
2023/11/17 08:09:10;;;;;;;;;;;;;;;4.48;84.76;101006.05;106217;1260;125380;-84
2023/11/17 08:11:37;;;;;;;;;;;;;;;4.51;84.85;101007.40;106328;1260;64696;-82
2023/11/17 08:14:08;;;;;;;;;;;;;;;4.53;84.78;101011.02;106378;1257;124935;-83
2023/11/17 08:16:35;;;;;;;;;;;;;;;4.55;84.78;101006.10;106408;1257;60091;-82
2023/11/17 08:19:03;;;;;;;;;;;;;;;4.59;84.74;101009.94;106293;1263;62093;-83
2023/11/17 08:21:33;;;;;;;;;;;;;;;4.63;84.83;101011.00;106266;1259;76225;-82
2023/11/17 08:24:00;;;;;;;;;;;;;;;4.67;84.72;101011.42;106357;1260;65992;-83
2023/11/17 08:26:33;;;;;;;;;;;;;;;4.72;84.59;101015.13;106322;1257;126104;-87
2023/11/17 08:28:59;;;;;;;;;;;;;;;4.73;84.47;101015.17;106299;1260;62070;-86
2023/11/17 08:31:26;;;;;;;;;;;;;;;4.72;84.50;101020.91;106336;1261;124420;-86
2023/11/17 08:33:54;;;;;;;;;;;;;;;4.72;84.31;101020.36;106355;1263;75348;-86
2023/11/17 08:36:23;;;;;;;;;;;;;;;4.70;84.25;101022.33;106411;1258;66204;-86
2023/11/17 08:38:52;;;;;;;;;;;;;;;4.69;84.24;101022.27;106214;1260;124278;-86
2023/11/17 08:41:18;;;;;;;;;;;;;;;4.70;84.22;101023.73;106308;1260;60087;-82
2023/11/17 08:43:45;;;;;;;;;;;;;;;4.71;84.23;101025.15;106249;1258;124802;-82
2023/11/17 08:46:12;;;;;;;;;;;;;;;4.70;84.15;101027.21;106330;1257;74191;-82
2023/11/17 08:48:39;;;;;;;;;;;;;;;4.70;84.18;101029.64;106314;1257;64495;-82
2023/11/17 08:51:06;;;;;;;;;;;;;;;4.71;84.17;101033.69;106273;1263;125018;-83
2023/11/17 08:53:33;;;;;;;;;;;;;;;4.72;84.14;101036.86;106224;1259;60564;-82
2023/11/17 08:56:02;;;;;;;;;;;;;;;4.70;83.96;101039.70;106244;1257;124769;-83
2023/11/17 08:58:29;;;;;;;;;;;;;;;4.66;84.01;101039.73;106317;1257;75462;-83
2023/11/17 09:00:57;;;;;;;;;;;;;;;4.68;84.12;101041.69;106217;1260;66062;-83
2023/11/17 09:03:24;;;;;;;;;;;;;;;4.72;84.22;101046.42;106332;1257;126279;-83
2023/11/17 09:05:51;;;;;;;;;;;;;;;4.72;84.18;101048.35;106207;1259;62248;-83
2023/11/17 09:08:31;;;;;;;;;;;;;;;4.76;84.10;101050.45;103178;1295;598900;-82
2023/11/17 09:10:59;;;;;;;;;;;;;;;4.76;84.06;101053.94;105691;1270;59362;-82
2023/11/17 09:13:25;;;;;;;;;;;;;;;4.79;84.14;101056.02;105522;1271;123738;-86
2023/11/17 09:15:52;;;;;;;;;;;;;;;4.78;83.88;101055.77;105923;1269;71032;-87
2023/11/17 09:18:19;;;;;;;;;;;;;;;4.75;83.82;101055.64;105819;1269;65961;-87
2023/11/17 09:20:45;;;;;;;;;;;;;;;4.76;83.85;101055.71;105934;1269;123119;-88
2023/11/17 09:23:12;;;;;;;;;;;;;;;4.82;83.93;101051.65;105849;1266;182445;-87
2023/11/17 09:25:39;;;;;;;;;;;;;;;4.87;83.89;101053.14;105901;1266;124109;-87
2023/11/17 09:28:06;;;;;;;;;;;;;;;4.93;84.01;101054.83;106139;1266;72314;-87
2023/11/17 09:30:35;;;;;;;;;;;;;;;4.97;83.82;101051.06;106079;1266;64799;-87
2023/11/17 09:33:02;;;;;;;;;;;;;;;5.03;83.87;101048.95;105989;1265;123702;-87
2023/11/17 09:35:31;;;;;;;;;;;;;;;5.07;83.57;101053.14;106096;1266;59721;-86
2023/11/17 09:37:58;;;;;;;;;;;;;;;5.09;83.55;101054.60;106024;1265;124016;-86
2023/11/17 09:40:26;;;;;;;;;;;;;;;5.11;83.53;101059.64;106589;1256;73082;-86
2023/11/17 09:42:53;;;;;;;;;;;;;;;5.12;83.40;101061.42;106519;1260;66378;-87
2023/11/17 09:45:21;;;;;;;;;;;;;;;5.14;83.42;101063.27;106301;1257;123853;-87
2023/11/17 09:47:58;;;;;;;;;;;;;;;5.17;83.27;101063.77;106344;1257;60254;-86
2023/11/17 09:50:26;;;;;;;;;;;;;;;5.19;83.32;101064.73;106190;1258;124041;-87
2023/11/17 09:52:53;;;;;;;;;;;;;;;5.25;83.36;101064.35;106357;1261;71867;-86
2023/11/17 09:55:21;;;;;;;;;;;;;;;5.25;83.07;101068.71;106366;1259;124226;-87
2023/11/17 09:57:49;;;;;;;;;;;;;;;5.23;82.90;101063.54;106276;1259;71888;-87
2023/11/17 10:00:20;;;;;;;;;;;;;;;5.16;82.66;101065.09;106461;1258;59527;-87
2023/11/17 10:02:52;;;;;;;;;;;;;;;5.11;82.74;101066.41;106307;1259;124182;-88
2023/11/17 10:05:19;;;;;;;;;;;;;;;5.12;82.79;101064.19;106572;1259;71698;-86
2023/11/17 10:07:47;;;;;;;;;;;;;;;5.16;82.95;101067.17;106272;1265;124145;-86
2023/11/17 10:10:16;;;;;;;;;;;;;;;5.21;82.88;101066.23;106386;1258;71390;-88
2023/11/17 10:12:43;;;;;;;;;;;;;;;5.19;82.60;101068.89;106367;1258;59562;-87
2023/11/17 10:15:12;;;;;;;;;;;;;;;5.18;82.64;101072.65;106297;1256;124073;-83
2023/11/17 10:17:40;;;;;;;;;;;;;;;5.12;82.40;101074.09;106744;1260;71461;-82
2023/11/17 10:20:17;;;;;;;;;;;;;;;5.05;82.23;101074.40;106343;1257;123980;-83
2023/11/17 10:22:49;;;;;;;;;;;;;;;4.99;82.36;101080.94;106442;1260;72659;-83
2023/11/17 10:25:18;;;;;;;;;;;;;;;4.97;82.48;101082.54;106363;1258;124254;-82
2023/11/17 10:27:46;;;;;;;;;;;;;;;4.88;82.16;101086.40;106480;1264;59753;-82
2023/11/17 10:30:13;;;;;;;;;;;;;;;4.81;82.18;101091.27;106453;1260;72644;-82
2023/11/17 10:32:40;;;;;;;;;;;;;;;4.77;82.37;101093.33;106271;1258;124104;-83
2023/11/17 10:35:11;;;;;;;;;;;;;;;4.75;82.34;101092.51;106463;1262;73703;-83
2023/11/17 10:37:39;;;;;;;;;;;;;;;4.74;82.46;101097.10;106634;1257;123952;-83
2023/11/17 10:40:09;;;;;;;;;;;;;;;4.73;82.41;101094.10;106543;1258;60322;-85
2023/11/17 10:42:36;;;;;;;;;;;;;;;4.74;82.46;101093.29;106359;1262;71659;-87
2023/11/17 10:45:16;;;;;;;;;;;;;;;4.73;82.37;101096.70;106502;1259;122305;-87
2023/11/17 10:47:43;;;;;;;;;;;;;;;4.71;82.34;101096.26;106426;1259;72361;-86
2023/11/17 10:50:10;;;;;;;;;;;;;;;4.69;82.36;101092.70;106331;1260;123329;-87
2023/11/17 10:52:37;;;;;;;;;;;;;;;4.66;82.34;101097.41;106267;1258;59724;-81
2023/11/17 10:55:04;;;;;;;;;;;;;;;4.61;82.30;101097.14;106529;1261;71755;-85
2023/11/17 10:57:31;;;;;;;;;;;;;;;4.60;82.39;101100.37;106500;1256;66797;-85
2023/11/17 10:59:57;;;;;;;;;;;;;;;4.56;82.32;101105.36;106664;1256;72802;-86
2023/11/17 11:02:28;;;;;;;;;;;;;;;4.52;82.30;101104.13;106496;1261;123783;-87
2023/11/17 11:04:59;;;;;;;;;;;;;;;4.50;82.34;101105.20;106498;1262;60101;-87
2023/11/17 11:07:25;;;;;;;;;;;;;;;4.50;82.48;101102.09;106650;1262;124044;-86
2023/11/17 11:09:52;;;;;;;;;;;;;;;4.51;82.59;101100.42;106605;1261;66335;-87
2023/11/17 11:12:20;;;;;;;;;;;;;;;4.54;82.61;101105.23;106667;1262;72320;-87
2023/11/17 11:14:49;;;;;;;;;;;;;;;4.55;82.52;101107.42;106458;1259;124026;-86
2023/11/17 11:17:16;;;;;;;;;;;;;;;4.57;82.47;101108.00;106492;1258;58593;-86
2023/11/17 11:19:45;;;;;;;;;;;;;;;4.60;82.55;101108.35;106549;1258;124706;-87
2023/11/17 11:22:12;;;;;;;;;;;;;;;4.60;82.47;101109.27;106516;1259;66025;-87
2023/11/17 11:24:40;;;;;;;;;;;;;;;4.63;82.55;101103.83;106508;1257;73039;-82
2023/11/17 11:27:07;;;;;;;;;;;;;;;4.66;82.46;101105.39;106372;1259;123894;-84
2023/11/17 11:29:38;;;;;;;;;;;;;;;4.68;82.51;101107.79;106554;1258;59640;-83
2023/11/17 11:32:06;;;;;;;;;;;;;;;4.68;82.24;101109.50;106418;1257;125179;-86
2023/11/17 11:34:34;;;;;;;;;;;;;;;4.66;82.26;101111.16;106551;1259;66249;-84
2023/11/17 11:37:03;;;;;;;;;;;;;;;4.67;82.28;101113.66;106702;1258;71185;-81
2023/11/17 11:39:31;;;;;;;;;;;;;;;4.70;82.42;101109.59;106452;1258;124468;-82
2023/11/17 11:42:00;;;;;;;;;;;;;;;4.71;82.39;101113.63;106475;1262;59781;-83
2023/11/17 11:44:27;;;;;;;;;;;;;;;4.68;82.22;101116.98;106461;1259;124172;-83
2023/11/17 11:46:55;;;;;;;;;;;;;;;4.65;82.20;101116.98;106495;1258;64926;-82
2023/11/17 11:49:22;;;;;;;;;;;;;;;4.62;82.11;101116.64;106465;1259;124325;-82
2023/11/17 11:51:58;;;;;;;;;;;;;;;4.60;82.24;101117.95;106508;1259;59578;-82
2023/11/17 11:54:26;;;;;;;;;;;;;;;4.58;82.19;101120.74;106416;1260;60056;-83
2023/11/17 11:56:54;;;;;;;;;;;;;;;4.59;82.30;101119.96;106280;1259;124152;-83
2023/11/17 11:59:21;;;;;;;;;;;;;;;4.61;82.39;101121.80;106504;1262;66282;-83
2023/11/17 12:01:49;;;;;;;;;;;;;;;4.61;82.44;101120.63;106302;1260;124777;-83
2023/11/17 12:04:18;;;;;;;;;;;;;;;4.62;82.27;101119.11;106445;1258;59691;-83
2023/11/17 12:06:45;;;;;;;;;;;;;;;4.61;82.35;101124.42;106567;1258;59969;-83
2023/11/17 12:09:20;;;;;;;;;;;;;;;4.60;82.28;101127.17;106331;1259;124127;-82
2023/11/17 12:11:47;;;;;;;;;;;;;;;4.60;82.25;101129.92;106634;1259;65959;-82
2023/11/17 12:14:18;;;;;;;;;;;;;;;4.56;82.20;101134.39;106240;1257;124817;-82
2023/11/17 12:16:58;;;;;;;;;;;;;;;4.55;82.32;101132.79;106555;1259;57663;-82
2023/11/17 12:19:31;;;;;;;;;;;;;;;4.55;82.21;101136.25;106316;1262;124034;-82
2023/11/17 12:22:01;;;;;;;;;;;;;;;4.55;82.31;101137.63;106400;1258;72137;-82
2023/11/17 12:24:28;;;;;;;;;;;;;;;4.54;82.33;101132.70;106299;1261;65101;-83
2023/11/17 12:26:55;;;;;;;;;;;;;;;4.52;82.32;101133.13;106241;1258;123921;-83
2023/11/17 12:29:24;;;;;;;;;;;;;;;4.52;82.46;101141.47;106361;1262;59849;-83
2023/11/17 12:31:52;;;;;;;;;;;;;;;4.49;82.32;101143.58;106442;1257;123747;-87
2023/11/17 12:34:18;;;;;;;;;;;;;;;4.45;82.22;101147.70;106325;1262;73180;-87
2023/11/17 12:36:56;;;;;;;;;;;;;;;4.42;82.17;101146.98;106576;1262;64953;-87